createdAt,value
2018-07-05T00:01:33.691Z,96784.31
2018-07-05T00:04:14.458Z,96780.50
2018-07-05T00:06:55.649Z,96781.81
2018-07-05T00:09:36.840Z,96767.39
2018-07-05T00:12:18.258Z,96773.81
2018-07-05T00:14:58.708Z,96765.83
2018-07-05T00:17:39.753Z,96763.29
2018-07-05T00:20:22.125Z,96759.88
2018-07-05T00:23:03.542Z,96761.95
2018-07-05T00:25:44.930Z,96767.41
2018-07-05T00:28:26.176Z,96756.35
2018-07-05T00:31:07.138Z,96758.91
2018-07-05T00:33:48.554Z,96761.47
2018-07-05T00:36:30.275Z,96755.16
2018-07-05T00:39:11.852Z,96762.44
2018-07-05T00:41:53.242Z,96770.15
2018-07-05T00:44:34.468Z,96770.63
2018-07-05T00:47:16.005Z,96777.14
2018-07-05T00:49:57.244Z,96770.34
2018-07-05T00:52:38.598Z,96766.59
2018-07-05T00:55:20.153Z,96771.33
2018-07-05T00:58:01.350Z,96775.68
2018-07-05T01:00:42.728Z,96784.69
2018-07-05T01:03:23.777Z,96790.78
2018-07-05T01:06:05.140Z,96781.48
2018-07-05T01:08:46.620Z,96783.59
2018-07-05T01:11:27.962Z,96775.54
2018-07-05T01:14:08.874Z,96777.22
2018-07-05T01:16:50.350Z,96776.87
2018-07-05T01:19:31.243Z,96775.98
2018-07-05T01:22:11.927Z,96773.83
2018-07-05T01:24:53.166Z,96772.09
2018-07-05T01:27:37.199Z,96768.36
2018-07-05T01:30:19.693Z,96763.70
2018-07-05T01:33:00.777Z,96758.12
2018-07-05T01:35:42.293Z,96751.73
2018-07-05T01:38:23.140Z,96751.75
2018-07-05T01:41:04.418Z,96750.92
2018-07-05T01:43:45.834Z,96755.25
2018-07-05T01:46:26.878Z,96759.93
2018-07-05T01:49:08.251Z,96753.98
2018-07-05T01:51:49.658Z,96754.87
2018-07-05T01:54:30.884Z,96754.94
2018-07-05T01:57:12.010Z,96743.09
2018-07-05T01:59:53.216Z,96737.61
2018-07-05T02:02:34.367Z,96735.53
2018-07-05T02:05:15.674Z,96741.48
2018-07-05T02:07:56.975Z,96749.21
2018-07-05T02:10:38.526Z,96754.44
2018-07-05T02:13:19.919Z,96756.20
2018-07-05T02:16:01.340Z,96757.05
2018-07-05T02:18:42.047Z,96750.27
2018-07-05T02:21:23.246Z,96755.35
2018-07-05T02:24:04.232Z,96757.91
2018-07-05T02:26:45.609Z,96755.89
2018-07-05T02:29:26.395Z,96752.02
2018-07-05T02:32:07.557Z,96748.61
2018-07-05T02:34:48.527Z,96747.80
2018-07-05T02:37:34.833Z,96746.12
2018-07-05T02:40:15.292Z,96747.84
2018-07-05T02:42:56.377Z,96753.44
2018-07-05T02:45:37.602Z,96753.86
2018-07-05T02:48:18.629Z,96751.31
2018-07-05T02:50:59.636Z,96759.42
2018-07-05T02:53:41.050Z,96761.59
2018-07-05T02:56:21.930Z,96759.89
2018-07-05T02:59:03.277Z,96762.02
2018-07-05T03:01:44.696Z,96759.04
2018-07-05T03:04:26.233Z,96760.77
2018-07-05T03:07:07.442Z,96762.92
2018-07-05T03:09:48.978Z,96759.09
2018-07-05T03:12:30.229Z,96753.09
2018-07-05T03:15:11.301Z,96747.98
2018-07-05T03:17:53.098Z,96741.20
2018-07-05T03:20:33.711Z,96747.59
2018-07-05T03:23:14.907Z,96749.66
2018-07-05T03:25:55.850Z,96739.44
2018-07-05T03:28:36.949Z,96752.20
2018-07-05T03:31:17.737Z,96755.59
2018-07-05T03:33:58.927Z,96755.16
2018-07-05T03:36:40.300Z,96746.27
2018-07-05T03:39:20.945Z,96738.60
2018-07-05T03:42:02.280Z,96729.21
2018-07-05T03:44:43.721Z,96734.72
2018-07-05T03:47:24.947Z,96745.73
2018-07-05T03:50:06.495Z,96738.55
2018-07-05T03:52:47.474Z,96741.16
2018-07-05T03:55:28.752Z,96728.78
2018-07-05T03:58:10.085Z,96728.80
2018-07-05T04:00:51.164Z,96723.67
2018-07-05T04:03:32.580Z,96721.95
2018-07-05T04:06:13.500Z,96732.61
2018-07-05T04:08:54.764Z,96740.37
2018-07-05T04:11:35.812Z,96741.16
2018-07-05T04:14:17.320Z,96746.22
2018-07-05T04:16:58.299Z,96746.61
2018-07-05T04:19:44.815Z,96742.88
2018-07-05T04:22:25.833Z,96731.33
2018-07-05T04:25:07.337Z,96727.48
2018-07-05T04:27:47.993Z,96730.00
2018-07-05T04:30:28.838Z,96729.06
2018-07-05T04:33:10.019Z,96724.34
2018-07-05T04:35:50.840Z,96724.73
2018-07-05T04:38:32.290Z,96725.93
2018-07-05T04:41:13.814Z,96714.38
2018-07-05T04:43:55.202Z,96722.05
2018-07-05T04:46:36.008Z,96733.16
2018-07-05T04:49:17.576Z,96735.64
2018-07-05T04:51:58.485Z,96734.70
2018-07-05T04:54:39.791Z,96736.30
2018-07-05T04:57:21.323Z,96747.31
2018-07-05T05:00:02.711Z,96751.55
2018-07-05T05:02:43.594Z,96755.72
2018-07-05T05:05:24.520Z,96754.79
2018-07-05T05:08:05.628Z,96756.04
2018-07-05T05:10:46.407Z,96754.77
2018-07-05T05:13:27.832Z,96762.80
2018-07-05T05:16:09.250Z,96749.45
2018-07-05T05:18:50.178Z,96738.19
2018-07-05T05:21:31.168Z,96742.34
2018-07-05T05:24:12.338Z,96736.30
2018-07-05T05:26:53.497Z,96739.11
2018-07-05T05:29:35.076Z,96734.27
2018-07-05T05:32:16.456Z,96742.69
2018-07-05T05:34:57.684Z,96739.09
2018-07-05T05:37:39.225Z,96743.57
2018-07-05T05:40:20.609Z,96746.40
2018-07-05T05:43:01.581Z,96746.66
2018-07-05T05:45:42.487Z,96746.43
2018-07-05T05:48:23.522Z,96741.06
2018-07-05T05:51:04.929Z,96749.01
2018-07-05T05:53:46.165Z,96753.07
2018-07-05T05:56:27.678Z,96744.38
2018-07-05T05:59:09.077Z,96732.61
2018-07-05T06:01:50.467Z,96734.52
2018-07-05T06:04:31.682Z,96719.43
2018-07-05T06:07:12.138Z,96721.76
2018-07-05T06:09:53.799Z,96720.27
2018-07-05T06:12:35.028Z,96710.69
2018-07-05T06:15:16.598Z,96716.87
2018-07-05T06:17:57.951Z,96724.86
2018-07-05T06:20:38.895Z,96741.39
2018-07-05T06:23:20.207Z,96735.70
2018-07-05T06:26:01.276Z,96745.07
2018-07-05T06:28:41.951Z,96739.42
2018-07-05T06:31:23.298Z,96734.48
2018-07-05T06:34:04.265Z,96736.84
2018-07-05T06:36:45.195Z,96739.66
2018-07-05T06:39:26.432Z,96738.23
2018-07-05T06:42:07.457Z,96738.09
2018-07-05T06:44:48.930Z,96740.42
2018-07-05T06:47:30.255Z,96745.86
2018-07-05T06:50:11.293Z,96735.91
2018-07-05T06:52:52.547Z,96740.91
2018-07-05T06:55:33.209Z,96735.91
2018-07-05T06:58:14.630Z,96738.24
2018-07-05T07:00:56.024Z,96738.37
2018-07-05T07:03:37.398Z,96736.61
2018-07-05T07:06:18.635Z,96733.83
2018-07-05T07:08:59.999Z,96729.80
2018-07-05T07:11:41.088Z,96728.33
2018-07-05T07:14:22.736Z,96734.11
2018-07-05T07:17:04.325Z,96737.29
2018-07-05T07:19:45.489Z,96736.23
2018-07-05T07:22:27.025Z,96735.78
2018-07-05T07:25:07.877Z,96739.27
2018-07-05T07:27:49.041Z,96742.06
2018-07-05T07:30:30.431Z,96741.88
2018-07-05T07:33:11.377Z,96741.53
2018-07-05T07:35:52.065Z,96733.93
2018-07-05T07:38:33.197Z,96733.11
2018-07-05T07:41:13.920Z,96730.24
2018-07-05T07:43:42.499Z,96724.71
2018-07-05T07:46:11.846Z,96726.13
2018-07-05T07:48:40.792Z,96720.72
2018-07-05T07:51:09.324Z,96721.48
2018-07-05T07:53:38.161Z,96718.83
2018-07-05T07:56:07.276Z,96717.72
2018-07-05T07:58:36.221Z,96720.89
2018-07-05T08:01:04.882Z,96715.83
2018-07-05T08:03:34.010Z,96718.88
2018-07-05T08:06:03.231Z,96722.92
2018-07-05T08:08:31.875Z,96717.14
2018-07-05T08:11:00.883Z,96717.60
2018-07-05T08:13:29.979Z,96707.98
2018-07-05T08:15:58.809Z,96709.66
2018-07-05T08:18:27.907Z,96707.84
2018-07-05T08:20:57.338Z,96705.60
2018-07-05T08:23:26.517Z,96703.89
2018-07-05T08:25:55.605Z,96707.02
2018-07-05T08:28:24.550Z,96702.69
2018-07-05T08:30:53.375Z,96698.45
2018-07-05T08:33:22.467Z,96698.36
2018-07-05T08:35:51.415Z,96687.65
2018-07-05T08:38:20.030Z,96684.05
2018-07-05T08:40:48.976Z,96689.10
2018-07-05T08:43:17.890Z,96676.30
2018-07-05T08:45:47.167Z,96680.45
2018-07-05T08:48:16.243Z,96680.72
2018-07-05T08:50:45.354Z,96682.64
2018-07-05T08:53:14.045Z,96678.37
2018-07-05T08:55:42.532Z,96673.17
2018-07-05T08:58:11.827Z,96670.96
2018-07-05T09:00:40.772Z,96670.59
2018-07-05T09:03:09.895Z,96663.20
2018-07-05T09:05:38.941Z,96656.57
2018-07-05T09:08:07.777Z,96655.02
2018-07-05T09:10:36.848Z,96654.64
2018-07-05T09:13:06.110Z,96661.37
2018-07-05T09:15:35.017Z,96658.41
2018-07-05T09:18:04.081Z,96657.69
2018-07-05T09:20:32.718Z,96652.34
2018-07-05T09:23:01.954Z,96652.67
2018-07-05T09:25:31.061Z,96653.80
2018-07-05T09:28:00.132Z,96653.12
2018-07-05T09:30:28.852Z,96651.98
2018-07-05T09:32:57.917Z,96648.25
2018-07-05T09:35:26.868Z,96655.13
2018-07-05T09:37:55.701Z,96652.28
2018-07-05T09:40:24.399Z,96653.95
2018-07-05T09:42:52.980Z,96650.55
2018-07-05T09:45:22.198Z,96651.23
2018-07-05T09:47:51.106Z,96650.91
2018-07-05T09:50:19.732Z,96653.91
2018-07-05T09:52:48.688Z,96648.84
2018-07-05T09:55:17.581Z,96647.55
2018-07-05T09:57:46.451Z,96648.16
2018-07-05T10:00:15.433Z,96647.63
2018-07-05T10:02:44.649Z,96646.33
2018-07-05T10:05:13.298Z,96645.13
2018-07-05T10:07:42.037Z,96642.61
2018-07-05T10:10:10.712Z,96640.00
2018-07-05T10:12:39.639Z,96641.20
2018-07-05T10:15:08.801Z,96633.46
2018-07-05T10:17:37.893Z,96633.38
2018-07-05T10:20:06.917Z,96630.98
2018-07-05T10:22:35.727Z,96632.22
2018-07-05T10:25:04.877Z,96628.14
2018-07-05T10:27:33.569Z,96631.19
2018-07-05T10:30:14.509Z,96627.16
2018-07-05T10:32:55.964Z,96624.82
2018-07-05T10:35:24.927Z,96620.20
2018-07-05T10:37:57.326Z,96617.45
2018-07-05T10:40:38.877Z,96622.15
2018-07-05T10:43:19.754Z,96613.72
2018-07-05T10:46:01.175Z,96609.64
2018-07-05T10:48:42.551Z,96607.52
2018-07-05T10:51:23.741Z,96600.47
2018-07-05T10:54:05.295Z,96598.53
2018-07-05T10:56:46.467Z,96592.98
2018-07-05T10:59:27.656Z,96592.81
2018-07-05T11:02:08.886Z,96593.14
2018-07-05T11:04:49.775Z,96591.94
2018-07-05T11:07:31.406Z,96585.44
2018-07-05T11:10:12.633Z,96584.80
2018-07-05T11:12:53.754Z,96583.58
2018-07-05T11:15:35.002Z,96585.90
2018-07-05T11:18:16.538Z,96581.90
2018-07-05T11:20:57.931Z,96578.98
2018-07-05T11:23:39.293Z,96569.67
2018-07-05T11:26:20.270Z,96571.17
2018-07-05T11:29:01.667Z,96567.27
2018-07-05T11:31:42.231Z,96572.13
2018-07-05T11:34:23.612Z,96568.22
2018-07-05T11:37:05.001Z,96564.02
2018-07-05T11:39:45.893Z,96566.50
2018-07-05T11:42:27.242Z,96571.28
2018-07-05T11:45:08.345Z,96567.20
2018-07-05T11:47:49.772Z,96562.25
2018-07-05T11:50:30.996Z,96562.03
2018-07-05T11:53:12.860Z,96559.81
2018-07-05T11:55:54.285Z,96564.25
2018-07-05T11:58:35.713Z,96564.63
2018-07-05T12:01:16.881Z,96568.72
2018-07-05T12:03:58.285Z,96569.56
2018-07-05T12:06:39.378Z,96560.72
2018-07-05T12:09:20.809Z,96562.82
2018-07-05T12:12:02.196Z,96558.49
2018-07-05T12:14:43.108Z,96556.11
2018-07-05T12:17:24.746Z,96554.13
2018-07-05T12:20:06.344Z,96542.81
2018-07-05T12:22:46.945Z,96544.50
2018-07-05T12:25:27.863Z,96542.33
2018-07-05T12:28:08.853Z,96530.99
2018-07-05T12:30:49.820Z,96535.47
2018-07-05T12:33:31.057Z,96527.39
2018-07-05T12:36:12.446Z,96524.30
2018-07-05T12:38:53.824Z,96515.59
2018-07-05T12:41:34.964Z,96510.52
2018-07-05T12:44:16.350Z,96507.80
2018-07-05T12:46:57.732Z,96511.36
2018-07-05T12:49:38.950Z,96505.59
2018-07-05T12:52:19.429Z,96506.33
2018-07-05T12:55:01.478Z,96501.84
2018-07-05T12:57:42.861Z,96506.16
2018-07-05T13:00:24.074Z,96500.37
2018-07-05T13:03:04.813Z,96503.36
2018-07-05T13:05:45.569Z,96500.31
2018-07-05T13:08:27.140Z,96502.19
2018-07-05T13:11:08.559Z,96499.55
2018-07-05T13:13:49.760Z,96499.04
2018-07-05T13:16:31.321Z,96498.05
2018-07-05T13:19:12.634Z,96496.67
2018-07-05T13:21:54.090Z,96495.86
2018-07-05T13:24:35.075Z,96499.70
2018-07-05T13:27:16.290Z,96500.21
2018-07-05T13:29:57.695Z,96501.06
2018-07-05T13:32:39.071Z,96496.18
2018-07-05T13:35:20.025Z,96494.74
2018-07-05T13:38:01.179Z,96488.14
2018-07-05T13:40:42.361Z,96493.86
2018-07-05T13:43:23.826Z,96490.85
2018-07-05T13:46:05.197Z,96503.13
2018-07-05T13:48:45.807Z,96543.09
2018-07-05T13:51:27.594Z,96551.73
2018-07-05T13:54:08.636Z,96571.08
2018-07-05T13:56:49.457Z,96565.38
2018-07-05T13:59:31.031Z,96569.98
2018-07-05T14:02:12.312Z,96574.54
2018-07-05T14:04:53.595Z,96573.48
2018-07-05T14:07:34.669Z,96578.95
2018-07-05T14:10:15.610Z,96570.39
2018-07-05T14:12:57.541Z,96569.20
2018-07-05T14:15:38.167Z,96568.70
2018-07-05T14:18:20.825Z,96566.00
2018-07-05T14:21:02.123Z,96574.89
2018-07-05T14:23:43.385Z,96577.64
2018-07-05T14:26:24.458Z,96574.62
2018-07-05T14:29:06.106Z,96584.08
2018-07-05T14:31:47.226Z,96581.91
2018-07-05T14:34:28.570Z,96588.25
2018-07-05T14:37:09.598Z,96585.80
2018-07-05T14:39:50.979Z,96602.20
2018-07-05T14:42:32.267Z,96604.36
2018-07-05T14:45:13.759Z,96608.00
2018-07-05T14:47:54.287Z,96608.03
2018-07-05T14:50:35.710Z,96605.78
2018-07-05T14:53:16.440Z,96608.86
2018-07-05T14:55:58.064Z,96621.70
2018-07-05T14:58:39.429Z,96617.37
2018-07-05T15:01:20.640Z,96612.39
2018-07-05T15:04:01.279Z,96620.14
2018-07-05T15:06:42.781Z,96617.05
2018-07-05T15:09:23.578Z,96620.59
2018-07-05T15:12:04.968Z,96610.41
2018-07-05T15:14:46.115Z,96617.44
2018-07-05T15:17:28.239Z,96618.36
2018-07-05T15:20:09.279Z,96620.83
2018-07-05T15:22:50.441Z,96616.95
2018-07-05T15:25:31.667Z,96628.07
2018-07-05T15:28:12.870Z,96623.44
2018-07-05T15:30:54.423Z,96619.84
2018-07-05T15:33:35.404Z,96625.61
2018-07-05T15:36:16.759Z,96630.08
2018-07-05T15:38:58.174Z,96636.66
2018-07-05T15:41:39.404Z,96637.22
2018-07-05T15:44:20.933Z,96637.00
2018-07-05T15:47:01.926Z,96628.45
2018-07-05T15:49:43.155Z,96639.99
2018-07-05T15:52:24.286Z,96640.94
2018-07-05T15:55:05.501Z,96638.23
2018-07-05T15:57:47.066Z,96642.01
2018-07-05T16:00:28.272Z,96638.56
2018-07-05T16:03:09.820Z,96636.38
2018-07-05T16:05:51.046Z,96631.42
2018-07-05T16:08:32.173Z,96626.56
2018-07-05T16:11:13.540Z,96621.36
2018-07-05T16:13:54.798Z,96626.18
2018-07-05T16:16:36.266Z,96631.48
2018-07-05T16:19:17.701Z,96623.87
2018-07-05T16:21:58.669Z,96629.89
2018-07-05T16:24:39.969Z,96626.33
2018-07-05T16:27:20.954Z,96621.88
2018-07-05T16:30:02.034Z,96623.30
2018-07-05T16:32:43.414Z,96625.42
2018-07-05T16:35:24.760Z,96622.90
2018-07-05T16:38:06.030Z,96626.08
2018-07-05T16:40:47.167Z,96623.80
2018-07-05T16:43:28.311Z,96628.14
2018-07-05T16:46:09.316Z,96637.95
2018-07-05T16:48:50.702Z,96633.60
2018-07-05T16:51:32.080Z,96641.36
2018-07-05T16:54:13.057Z,96645.41
2018-07-05T16:56:54.033Z,96653.62
2018-07-05T16:59:35.402Z,96661.47
2018-07-05T17:02:16.327Z,96670.98
2018-07-05T17:04:57.266Z,96668.56
2018-07-05T17:07:38.606Z,96668.25
2018-07-05T17:10:19.695Z,96671.62
2018-07-05T17:13:01.174Z,96672.52
2018-07-05T17:15:42.413Z,96673.28
2018-07-05T17:18:23.916Z,96673.45
2018-07-05T17:21:05.107Z,96674.97
2018-07-05T17:23:46.096Z,96682.81
2018-07-05T17:26:26.763Z,96692.05
2018-07-05T17:29:08.196Z,96693.27
2018-07-05T17:31:49.599Z,96688.89
2018-07-05T17:34:30.801Z,96702.48
2018-07-05T17:37:12.186Z,96703.40
2018-07-05T17:39:53.622Z,96714.81
2018-07-05T17:42:34.304Z,96718.16
2018-07-05T17:45:15.513Z,96715.19
2018-07-05T17:47:57.069Z,96719.38
2018-07-05T17:50:38.041Z,96724.63
2018-07-05T17:53:19.016Z,96729.52
2018-07-05T17:56:00.008Z,96721.19
2018-07-05T17:58:42.087Z,96725.08
2018-07-05T18:01:23.431Z,96724.44
2018-07-05T18:04:04.974Z,96725.95
2018-07-05T18:06:46.210Z,96729.58
2018-07-05T18:09:27.335Z,96729.47
2018-07-05T18:12:08.307Z,96730.35
2018-07-05T18:14:49.060Z,96729.72
2018-07-05T18:17:30.675Z,96735.03
2018-07-05T18:20:11.914Z,96729.26
2018-07-05T18:22:53.444Z,96730.36
2018-07-05T18:25:34.814Z,96727.06
2018-07-05T18:28:15.633Z,96733.20
2018-07-05T18:30:57.178Z,96736.13
2018-07-05T18:33:38.397Z,96743.80
2018-07-05T18:36:19.451Z,96744.00
2018-07-05T18:39:00.360Z,96742.12
2018-07-05T18:41:41.760Z,96739.46
2018-07-05T18:44:22.714Z,96743.20
2018-07-05T18:47:03.876Z,96745.41
2018-07-05T18:49:44.670Z,96746.14
2018-07-05T18:52:26.058Z,96753.37
2018-07-05T18:55:07.597Z,96759.27
2018-07-05T18:57:48.500Z,96757.95
2018-07-05T19:00:29.905Z,96764.63
2018-07-05T19:03:10.456Z,96769.27
2018-07-05T19:05:51.915Z,96772.97
2018-07-05T19:08:33.315Z,96772.56
2018-07-05T19:11:14.525Z,96785.19
2018-07-05T19:13:55.648Z,96783.52
2018-07-05T19:16:37.784Z,96790.69
2018-07-05T19:19:19.235Z,96788.27
2018-07-05T19:22:00.218Z,96793.02
2018-07-05T19:24:41.373Z,96798.30
2018-07-05T19:27:22.399Z,96801.99
2018-07-05T19:30:03.972Z,96810.73
2018-07-05T19:32:45.324Z,96805.50
2018-07-05T19:35:26.629Z,96813.83
2018-07-05T19:38:07.638Z,96811.24
2018-07-05T19:40:48.979Z,96818.22
2018-07-05T19:43:30.481Z,96826.95
2018-07-05T19:46:11.417Z,96827.03
2018-07-05T19:48:52.674Z,96827.14
2018-07-05T19:51:33.791Z,96830.03
2018-07-05T19:54:14.683Z,96827.67
2018-07-05T19:56:56.174Z,96834.12
2018-07-05T19:59:37.558Z,96828.05
2018-07-05T20:02:18.945Z,96834.16
2018-07-05T20:05:00.167Z,96837.76
2018-07-05T20:07:41.717Z,96835.67
2018-07-05T20:10:22.982Z,96840.03
2018-07-05T20:13:04.757Z,96833.97
2018-07-05T20:15:45.819Z,96837.45
2018-07-05T20:18:26.847Z,96847.08
2018-07-05T20:21:07.461Z,96847.95
2018-07-05T20:23:49.043Z,96851.52
2018-07-05T20:26:30.834Z,96857.58
2018-07-05T20:29:12.021Z,96856.77
2018-07-05T20:31:53.299Z,96855.97
2018-07-05T20:34:34.738Z,96856.47
2018-07-05T20:37:16.129Z,96849.33
2018-07-05T20:39:57.106Z,96854.48
2018-07-05T20:42:38.481Z,96853.30
2018-07-05T20:45:19.875Z,96857.55
2018-07-05T20:48:01.113Z,96860.13
2018-07-05T20:50:42.644Z,96858.02
2018-07-05T20:53:23.883Z,96867.58
2018-07-05T20:56:05.417Z,96866.73
2018-07-05T20:58:46.749Z,96864.59
2018-07-05T21:01:28.142Z,96859.84
2018-07-05T21:04:09.548Z,96858.56
2018-07-05T21:06:50.822Z,96860.72
2018-07-05T21:09:32.177Z,96861.13
2018-07-05T21:12:13.716Z,96857.27
2018-07-05T21:14:54.730Z,96861.20
2018-07-05T21:17:35.671Z,96856.54
2018-07-05T21:20:17.058Z,96861.75
2018-07-05T21:22:58.313Z,96864.06
2018-07-05T21:25:39.420Z,96862.83
2018-07-05T21:28:20.705Z,96863.26
2018-07-05T21:31:02.037Z,96865.06
2018-07-05T21:33:43.417Z,96861.27
2018-07-05T21:36:24.399Z,96862.34
2018-07-05T21:39:05.904Z,96859.87
2018-07-05T21:41:47.323Z,96856.59
2018-07-05T21:44:29.031Z,96860.94
2018-07-05T21:47:10.328Z,96866.58
2018-07-05T21:49:51.701Z,96866.16
2018-07-05T21:52:33.276Z,96868.84
2018-07-05T21:55:13.634Z,96871.41
2018-07-05T21:57:55.227Z,96868.03
2018-07-05T22:00:36.973Z,96864.66
2018-07-05T22:03:18.318Z,96872.34
2018-07-05T22:05:59.379Z,96873.30
2018-07-05T22:08:40.289Z,96876.08
2018-07-05T22:11:21.733Z,96869.64
2018-07-05T22:14:02.496Z,96872.61
2018-07-05T22:16:49.827Z,96872.31
2018-07-05T22:19:35.700Z,96867.65
2018-07-05T22:22:21.608Z,96864.36
2018-07-05T22:25:07.888Z,96864.43
2018-07-05T22:27:53.683Z,96865.72
2018-07-05T22:30:39.600Z,96871.22
2018-07-05T22:33:21.489Z,96867.13
2018-07-05T22:36:02.022Z,96868.02
2018-07-05T22:38:43.246Z,96866.93
2018-07-05T22:41:24.003Z,96865.36
2018-07-05T22:44:05.234Z,96866.55
2018-07-05T22:46:46.282Z,96869.55
2018-07-05T22:49:27.400Z,96866.64
2018-07-05T22:52:08.520Z,96864.17
2018-07-05T22:54:49.489Z,96865.12
2018-07-05T22:57:30.841Z,96868.08
2018-07-05T23:00:11.876Z,96872.02
2018-07-05T23:02:53.170Z,96868.13
2018-07-05T23:05:34.159Z,96861.34
2018-07-05T23:08:15.015Z,96859.27
2018-07-05T23:10:56.076Z,96867.08
2018-07-05T23:13:37.545Z,96860.27
2018-07-05T23:16:18.510Z,96862.02
2018-07-05T23:18:59.890Z,96854.78
2018-07-05T23:21:40.878Z,96853.49
2018-07-05T23:24:22.273Z,96854.36
2018-07-05T23:27:03.965Z,96857.91
2018-07-05T23:29:44.856Z,96851.16
2018-07-05T23:32:25.855Z,96858.61
2018-07-05T23:35:07.398Z,96851.38
2018-07-05T23:37:48.638Z,96850.56
2018-07-05T23:40:30.175Z,96853.95
2018-07-05T23:43:11.555Z,96849.66
2018-07-05T23:45:52.372Z,96853.98
2018-07-05T23:48:33.947Z,96854.42
2018-07-05T23:51:15.222Z,96853.98
2018-07-05T23:53:57.095Z,96850.56
2018-07-05T23:56:37.983Z,96850.65
2018-07-05T23:59:19.300Z,96844.22
